Time;durP1;ratioP1;P1;durP2;ratioP2;P2;SDS_P1;SDS_P2;PMS_P1;PMS_P2;Temp;Humidity;BMP_temperature;BMP_pressure;BME280_temperature;BME280_humidity;BME280_pressure;Samples;Min_cycle;Max_cycle;Signal;HPM_P1;HPM_P2
2022/01/31 00:00:42;;;;;;;8.18;5.15;;;5.20;83.10;;;;;;1864338;77;21042;-44
2022/01/31 00:03:11;;;;;;;10.00;6.00;;;5.10;83.40;;;;;;1864226;77;21526;-44
2022/01/31 00:05:40;;;;;;;4.10;2.83;;;5.10;83.60;;;;;;1864265;77;21085;-45
2022/01/31 00:08:09;;;;;;;6.17;4.53;;;5.10;84.30;;;;;;1864213;77;21097;-48
2022/01/31 00:10:38;;;;;;;6.45;2.77;;;5.00;84.60;;;;;;1864320;76;21444;-48
2022/01/31 00:13:08;;;;;;;4.97;3.55;;;5.00;85.10;;;;;;1864328;77;21041;-48
2022/01/31 00:15:41;;;;;;;6.05;4.28;;;4.90;85.10;;;;;;1864248;77;21009;-46
2022/01/31 00:18:09;;;;;;;8.10;4.12;;;4.80;85.20;;;;;;1864034;76;21531;-44
2022/01/31 00:20:38;;;;;;;6.42;5.10;;;4.70;85.60;;;;;;1864284;77;21037;-47
2022/01/31 00:23:07;;;;;;;8.78;5.90;;;4.70;85.60;;;;;;1864226;77;21026;-45
2022/01/31 00:25:37;;;;;;;4.85;3.52;;;4.70;85.60;;;;;;1864244;77;21064;-45
2022/01/31 00:28:07;;;;;;;5.53;4.42;;;4.70;86.20;;;;;;1864269;77;21107;-44
2022/01/31 00:30:36;;;;;;;7.50;5.17;;;4.70;86.00;;;;;;1864113;75;21069;-44
2022/01/31 00:33:05;;;;;;;7.12;5.33;;;4.70;85.90;;;;;;1864235;77;21017;-45
2022/01/31 00:35:35;;;;;;;8.70;5.55;;;4.60;86.10;;;;;;1864247;77;21041;-45
2022/01/31 00:38:05;;;;;;;4.62;3.80;;;4.70;86.00;;;;;;1864333;77;21030;-45
2022/01/31 00:40:38;;;;;;;10.48;5.80;;;4.70;86.10;;;;;;1864237;76;21178;-45
2022/01/31 00:43:06;;;;;;;10.85;6.72;;;4.70;85.90;;;;;;1863973;77;21042;-44
2022/01/31 00:45:43;;;;;;;9.48;6.17;;;4.70;86.10;;;;;;1864257;77;21038;-45
2022/01/31 00:48:14;;;;;;;7.15;4.72;;;4.70;85.60;;;;;;1863022;76;21041;-44
2022/01/31 00:50:39;;;;;;;7.22;5.37;;;4.70;85.90;;;;;;1863309;77;21053;-44
2022/01/31 00:53:09;;;;;;;9.85;6.80;;;4.70;85.80;;;;;;1864341;77;21496;-44
2022/01/31 00:55:38;;;;;;;8.18;5.47;;;4.70;85.60;;;;;;1864324;77;21045;-44
2022/01/31 00:58:08;;;;;;;8.63;5.85;;;4.80;86.20;;;;;;1864257;76;21077;-44
2022/01/31 01:00:38;;;;;;;7.70;5.28;;;4.80;86.00;;;;;;1864214;77;21045;-44
2022/01/31 01:03:07;;;;;;;6.22;4.22;;;4.80;86.80;;;;;;1864320;76;21175;-46
2022/01/31 01:05:37;;;;;;;9.68;5.75;;;4.80;86.90;;;;;;1864210;76;21037;-44
2022/01/31 01:08:07;;;;;;;8.60;5.53;;;4.70;86.60;;;;;;1864232;77;21045;-44
2022/01/31 01:10:36;;;;;;;8.25;5.70;;;4.70;85.90;;;;;;1864457;77;21045;-44
2022/01/31 01:13:06;;;;;;;8.18;5.47;;;4.70;86.10;;;;;;1864208;76;21041;-44
2022/01/31 01:15:35;;;;;;;10.95;5.65;;;4.80;86.00;;;;;;1864249;77;21041;-44
2022/01/31 01:18:04;;;;;;;9.95;6.17;;;4.80;86.00;;;;;;1864168;76;21041;-45
2022/01/31 01:20:33;;;;;;;11.43;6.53;;;4.80;85.90;;;;;;1864291;76;21530;-44
2022/01/31 01:23:03;;;;;;;10.13;5.35;;;4.70;85.80;;;;;;1864217;77;21045;-44
2022/01/31 01:25:33;;;;;;;9.40;5.33;;;4.80;86.00;;;;;;1864321;77;21037;-44
2022/01/31 01:28:03;;;;;;;7.67;4.87;;;4.80;86.40;;;;;;1864433;77;21202;-45
2022/01/31 01:30:33;;;;;;;9.48;5.33;;;4.70;86.10;;;;;;1864302;75;21119;-44
2022/01/31 01:33:11;;;;;;;8.20;3.92;;;4.70;86.00;;;;;;1864219;77;21033;-46
2022/01/31 01:35:34;;;;;;;4.85;2.58;;;4.70;86.50;;;;;;1862309;77;21554;-46
2022/01/31 01:38:07;;;;;;;6.33;4.00;;;4.60;87.00;;;;;;1864359;77;21111;-45
2022/01/31 01:40:38;;;;;;;7.95;4.35;;;4.60;86.60;;;;;;1864399;77;21171;-47
2022/01/31 01:43:09;;;;;;;7.78;4.80;;;4.60;87.00;;;;;;1864239;76;21061;-44
2022/01/31 01:45:40;;;;;;;7.60;4.75;;;4.50;86.80;;;;;;1864456;77;21103;-47
2022/01/31 01:48:11;;;;;;;7.17;4.33;;;4.50;87.30;;;;;;1864372;77;21124;-44
2022/01/31 01:50:41;;;;;;;7.37;4.45;;;4.60;87.20;;;;;;1864208;76;21021;-44
2022/01/31 01:53:12;;;;;;;9.38;4.15;;;4.50;87.30;;;;;;1864373;77;21022;-46
2022/01/31 01:55:45;;;;;;;4.97;3.75;;;4.50;86.90;;;;;;1864367;76;21061;-45
2022/01/31 01:58:16;;;;;;;5.45;3.72;;;4.60;87.20;;;;;;1864407;76;21033;-44
2022/01/31 02:00:58;;;;;;;4.33;3.42;;;4.60;86.80;;;;;;1864100;77;21118;-47
2022/01/31 02:03:24;;;;;;;4.22;2.65;;;4.60;86.90;;;;;;1862660;77;21068;-44
2022/01/31 02:05:54;;;;;;;4.87;2.85;;;4.60;87.10;;;;;;1864386;77;21103;-45
2022/01/31 02:08:26;;;;;;;7.40;3.87;;;4.60;87.00;;;;;;1864284;76;21049;-46
2022/01/31 02:10:56;;;;;;;3.25;2.52;;;4.60;86.90;;;;;;1864294;77;21037;-45
2022/01/31 02:13:27;;;;;;;1.72;1.47;;;4.60;86.90;;;;;;1862981;77;21041;-48
2022/01/31 02:15:58;;;;;;;2.80;2.50;;;4.60;87.00;;;;;;1824525;77;21068;-46
2022/01/31 02:18:32;;;;;;;3.50;2.42;;;4.60;86.60;;;;;;1861902;77;21154;-44
2022/01/31 02:21:04;;;;;;;4.95;3.42;;;4.60;86.60;;;;;;1864104;77;21052;-44
2022/01/31 02:23:35;;;;;;;8.60;3.52;;;4.60;86.70;;;;;;1864346;77;21116;-44
2022/01/31 02:26:21;;;;;;;3.67;2.83;;;4.60;86.80;;;;;;1836849;77;21327;-44
2022/01/31 02:29:01;;;;;;;9.60;4.53;;;4.60;86.80;;;;;;1861895;77;21103;-48
2022/01/31 02:31:31;;;;;;;6.37;3.83;;;4.60;86.50;;;;;;1860158;75;21362;-47
2022/01/31 02:34:01;;;;;;;4.95;4.03;;;4.60;86.70;;;;;;1855741;77;21062;-47
2022/01/31 02:36:31;;;;;;;6.83;4.80;;;4.60;86.70;;;;;;1855698;77;21038;-44
2022/01/31 02:39:00;;;;;;;9.15;4.85;;;4.60;86.70;;;;;;1855723;76;21038;-44
2022/01/31 02:41:30;;;;;;;7.03;3.33;;;4.60;86.90;;;;;;1855658;77;21112;-47
2022/01/31 02:44:00;;;;;;;5.87;4.10;;;4.60;87.20;;;;;;1855749;77;21018;-46
2022/01/31 02:46:32;;;;;;;5.00;3.83;;;4.60;87.00;;;;;;1822264;77;21428;-47
2022/01/31 02:49:02;;;;;;;8.23;4.85;;;4.60;87.10;;;;;;1855631;77;21163;-48
2022/01/31 02:51:32;;;;;;;6.53;4.33;;;4.60;86.80;;;;;;1855602;77;21018;-48
2022/01/31 02:54:04;;;;;;;4.80;3.70;;;4.70;87.30;;;;;;1855712;77;21119;-44
2022/01/31 02:56:33;;;;;;;3.62;3.30;;;4.70;86.90;;;;;;1855711;77;21104;-45
2022/01/31 02:59:03;;;;;;;6.37;3.45;;;4.70;87.10;;;;;;1855646;77;21046;-46
2022/01/31 03:01:35;;;;;;;6.25;4.17;;;4.70;87.40;;;;;;1855657;77;21583;-48
2022/01/31 03:04:05;;;;;;;8.58;3.50;;;4.70;87.00;;;;;;1855710;77;21021;-46
2022/01/31 03:06:38;;;;;;;7.95;4.25;;;4.70;87.00;;;;;;1855561;77;21500;-46
2022/01/31 03:09:07;;;;;;;7.33;4.42;;;4.70;87.40;;;;;;1855747;77;21043;-45
2022/01/31 03:11:38;;;;;;;7.70;3.75;;;4.80;87.00;;;;;;1854921;77;21115;-46
2022/01/31 03:14:10;;;;;;;4.87;3.83;;;4.80;86.90;;;;;;1855244;77;21112;-45
2022/01/31 03:16:41;;;;;;;3.72;2.98;;;4.80;87.00;;;;;;1854956;77;21107;-48
2022/01/31 03:19:21;;;;;;;10.58;4.17;;;4.80;87.10;;;;;;1855406;77;21107;-49
2022/01/31 03:21:55;;;;;;;5.90;4.78;;;4.80;87.10;;;;;;1854401;77;21131;-49
2022/01/31 03:24:25;;;;;;;6.47;4.10;;;4.80;87.80;;;;;;1855572;77;21037;-45
2022/01/31 03:26:54;;;;;;;4.22;3.17;;;4.90;87.10;;;;;;1855688;77;21018;-45
2022/01/31 03:29:25;;;;;;;9.73;3.60;;;4.90;87.10;;;;;;1855702;77;21503;-48
2022/01/31 03:31:54;;;;;;;6.50;3.77;;;4.90;87.80;;;;;;1859043;76;21062;-45
2022/01/31 03:34:25;;;;;;;9.05;5.78;;;4.80;87.30;;;;;;1864352;77;21566;-46
2022/01/31 03:36:55;;;;;;;7.30;4.87;;;4.80;87.20;;;;;;1864468;77;21049;-48
2022/01/31 03:39:26;;;;;;;6.37;3.67;;;4.80;88.00;;;;;;1864547;76;21503;-46
2022/01/31 03:41:56;;;;;;;4.20;2.27;;;4.80;87.60;;;;;;1864410;77;21041;-45
2022/01/31 03:44:25;;;;;;;8.43;4.05;;;4.80;88.20;;;;;;1864375;77;21038;-45
2022/01/31 03:46:56;;;;;;;10.65;4.55;;;4.80;87.90;;;;;;1864305;77;21033;-46
2022/01/31 03:49:25;;;;;;;6.08;4.90;;;4.80;87.90;;;;;;1864393;77;21037;-46
2022/01/31 03:52:00;;;;;;;6.70;4.70;;;4.80;87.70;;;;;;1863026;77;21073;-45
2022/01/31 03:54:33;;;;;;;8.63;4.58;;;4.80;87.90;;;;;;1862650;76;21575;-46
2022/01/31 03:57:03;;;;;;;5.72;4.30;;;4.80;88.30;;;;;;1864354;76;21099;-45
2022/01/31 03:59:43;;;;;;;4.65;2.95;;;4.70;88.40;;;;;;1801948;78;21048;-47
2022/01/31 04:02:13;;;;;;;6.20;4.53;;;4.70;88.50;;;;;;1864192;76;21174;-44
2022/01/31 04:04:42;;;;;;;5.55;4.62;;;4.70;88.40;;;;;;1864189;76;21154;-45
2022/01/31 04:07:10;;;;;;;10.38;5.30;;;4.70;88.50;;;;;;1864209;77;21033;-47
2022/01/31 04:09:39;;;;;;;8.70;6.12;;;4.70;88.10;;;;;;1864225;77;21049;-48
2022/01/31 04:12:08;;;;;;;9.15;5.53;;;4.70;88.10;;;;;;1864364;76;21115;-45
2022/01/31 04:14:37;;;;;;;11.20;6.25;;;4.70;88.10;;;;;;1864221;77;21040;-46
2022/01/31 04:17:09;;;;;;;8.00;5.17;;;4.70;88.10;;;;;;1864198;77;21057;-48
2022/01/31 04:19:37;;;;;;;8.88;5.97;;;4.70;88.40;;;;;;1864039;77;21066;-48
2022/01/31 04:22:14;;;;;;;6.17;4.12;;;4.70;88.30;;;;;;1864199;77;21110;-46
2022/01/31 04:24:41;;;;;;;9.95;6.10;;;4.70;88.70;;;;;;1863519;77;21488;-45
2022/01/31 04:27:16;;;;;;;9.35;6.62;;;4.80;88.80;;;;;;1864364;77;21100;-45
2022/01/31 04:29:40;;;;;;;10.18;7.08;;;4.80;88.70;;;;;;1862910;77;21090;-48
2022/01/31 04:32:10;;;;;;;12.47;7.60;;;4.80;88.40;;;;;;1864134;75;21127;-48
2022/01/31 04:34:38;;;;;;;7.83;5.85;;;4.70;88.00;;;;;;1864187;77;21097;-47
2022/01/31 04:37:07;;;;;;;10.05;5.83;;;4.70;88.30;;;;;;1864181;77;21062;-48
2022/01/31 04:39:36;;;;;;;10.45;7.53;;;4.80;88.90;;;;;;1864182;77;21044;-45
2022/01/31 04:42:05;;;;;;;7.92;5.53;;;4.80;88.80;;;;;;1864232;76;21036;-45
2022/01/31 04:44:35;;;;;;;7.10;5.25;;;4.80;88.90;;;;;;1864185;77;21089;-48
2022/01/31 04:47:04;;;;;;;8.40;5.30;;;4.80;88.50;;;;;;1864213;76;21111;-47
2022/01/31 04:49:35;;;;;;;9.15;4.95;;;4.80;88.60;;;;;;1864201;77;21081;-45
2022/01/31 04:52:03;;;;;;;7.55;4.22;;;4.90;88.50;;;;;;1864325;77;21152;-46
2022/01/31 04:54:32;;;;;;;5.05;4.12;;;4.90;89.20;;;;;;1864166;76;21033;-47
2022/01/31 04:57:00;;;;;;;7.50;4.55;;;4.90;89.00;;;;;;1864187;76;21125;-47
2022/01/31 04:59:29;;;;;;;7.35;4.87;;;4.90;88.70;;;;;;1864204;77;21040;-45
2022/01/31 05:01:58;;;;;;;4.62;4.08;;;4.90;88.80;;;;;;1864209;77;21107;-47
2022/01/31 05:04:26;;;;;;;6.25;3.83;;;4.90;88.90;;;;;;1864170;77;21017;-45
2022/01/31 05:06:55;;;;;;;7.05;4.03;;;4.90;88.90;;;;;;1864178;76;21198;-49
2022/01/31 05:09:23;;;;;;;7.65;3.70;;;4.90;88.70;;;;;;1864183;77;21104;-45
2022/01/31 05:11:52;;;;;;;9.38;5.15;;;4.90;89.20;;;;;;1864133;77;21606;-48
2022/01/31 05:14:21;;;;;;;4.15;3.60;;;4.90;89.10;;;;;;1864188;77;21087;-48
2022/01/31 05:16:50;;;;;;;6.58;4.08;;;5.00;89.30;;;;;;1864205;76;21504;-45
2022/01/31 05:19:19;;;;;;;3.33;2.47;;;5.00;89.30;;;;;;1864122;77;21045;-47
2022/01/31 05:21:47;;;;;;;2.05;1.87;;;5.00;89.20;;;;;;1864148;77;21099;-47
2022/01/31 05:24:16;;;;;;;3.45;2.62;;;5.00;89.00;;;;;;1864163;77;21044;-48
2022/01/31 05:26:50;;;;;;;3.50;2.77;;;5.00;89.00;;;;;;1864158;77;21005;-47
2022/01/31 05:29:14;;;;;;;2.37;1.40;;;5.00;88.70;;;;;;1863174;77;21041;-45
2022/01/31 05:31:43;;;;;;;3.00;2.35;;;5.10;89.00;;;;;;1864115;77;21546;-46
2022/01/31 05:34:12;;;;;;;5.33;3.40;;;5.10;88.60;;;;;;1864248;75;21072;-46
2022/01/31 05:36:41;;;;;;;4.70;2.67;;;5.10;88.50;;;;;;1864158;77;21148;-49
2022/01/31 05:39:10;;;;;;;6.87;2.15;;;5.10;88.30;;;;;;1864192;76;21045;-48
2022/01/31 05:41:39;;;;;;;4.28;2.20;;;5.10;88.40;;;;;;1864102;76;21033;-46
2022/01/31 05:44:07;;;;;;;2.27;1.72;;;5.10;88.50;;;;;;1864051;77;21032;-45
2022/01/31 05:46:36;;;;;;;3.52;2.35;;;5.20;88.50;;;;;;1864020;77;21094;-47
2022/01/31 05:49:05;;;;;;;6.05;2.85;;;5.20;88.30;;;;;;1864191;76;21163;-45
2022/01/31 05:51:33;;;;;;;3.25;2.45;;;5.30;88.00;;;;;;1864116;77;21052;-45
2022/01/31 05:54:02;;;;;;;2.62;2.15;;;5.30;87.60;;;;;;1864183;76;21032;-47
2022/01/31 05:56:31;;;;;;;4.83;2.37;;;5.40;87.40;;;;;;1864120;77;21028;-46
2022/01/31 05:58:59;;;;;;;3.87;2.55;;;5.40;87.20;;;;;;1864154;76;21005;-45
2022/01/31 06:01:28;;;;;;;6.40;3.85;;;5.50;87.00;;;;;;1864136;77;21132;-45
2022/01/31 06:03:57;;;;;;;3.17;2.85;;;5.50;86.70;;;;;;1864100;77;21099;-46
2022/01/31 06:06:27;;;;;;;2.33;2.12;;;5.60;86.70;;;;;;1864242;77;21033;-45
2022/01/31 06:08:56;;;;;;;2.50;1.77;;;5.60;86.70;;;;;;1864377;77;21041;-44
2022/01/31 06:11:25;;;;;;;5.90;4.20;;;5.60;86.70;;;;;;1864164;77;21091;-46
2022/01/31 06:13:56;;;;;;;3.67;3.37;;;5.60;86.90;;;;;;1864360;76;21045;-49
2022/01/31 06:16:25;;;;;;;10.98;3.10;;;5.70;87.00;;;;;;1864373;77;21095;-45
2022/01/31 06:18:55;;;;;;;3.90;3.02;;;5.70;87.30;;;;;;1864365;77;21127;-45
2022/01/31 06:21:24;;;;;;;3.62;3.05;;;5.70;87.20;;;;;;1864264;77;21061;-45
2022/01/31 06:23:54;;;;;;;4.97;2.90;;;5.80;87.40;;;;;;1864232;76;21096;-46
2022/01/31 06:26:23;;;;;;;3.58;2.72;;;5.80;87.30;;;;;;1864203;77;21159;-46
2022/01/31 06:28:54;;;;;;;6.53;3.00;;;5.80;87.10;;;;;;1856118;77;21072;-44
2022/01/31 06:31:34;;;;;;;4.50;2.50;;;5.90;87.10;;;;;;1864239;77;21127;-49
2022/01/31 06:34:03;;;;;;;6.22;2.60;;;5.80;86.80;;;;;;1859143;75;21115;-45
2022/01/31 06:36:33;;;;;;;2.40;2.08;;;5.90;86.90;;;;;;1855572;77;21152;-44
2022/01/31 06:39:03;;;;;;;4.70;3.05;;;5.90;87.40;;;;;;1855729;77;21037;-45
2022/01/31 06:41:33;;;;;;;9.50;3.22;;;5.90;86.90;;;;;;1855673;77;21089;-45
2022/01/31 06:44:03;;;;;;;7.15;4.78;;;6.00;87.20;;;;;;1855717;77;21331;-45
2022/01/31 06:46:32;;;;;;;4.50;4.10;;;6.10;87.50;;;;;;1855516;77;21116;-45
2022/01/31 06:49:02;;;;;;;5.40;3.33;;;6.20;87.20;;;;;;1855579;77;21030;-44
2022/01/31 06:51:31;;;;;;;6.65;3.83;;;6.40;86.70;;;;;;1855634;77;21037;-44
2022/01/31 06:54:01;;;;;;;15.13;9.38;;;6.40;86.40;;;;;;1855660;77;21046;-44
2022/01/31 06:56:32;;;;;;;4.90;3.25;;;6.50;85.80;;;;;;1855559;77;21053;-46
2022/01/31 06:59:02;;;;;;;8.73;5.97;;;6.70;85.70;;;;;;1855608;77;21033;-45
2022/01/31 07:01:31;;;;;;;4.58;2.47;;;6.70;84.80;;;;;;1855524;77;21046;-45
2022/01/31 07:04:01;;;;;;;9.10;5.58;;;6.70;84.60;;;;;;1855622;77;21107;-45
2022/01/31 07:06:30;;;;;;;3.25;2.95;;;6.70;85.20;;;;;;1855613;77;21092;-44
2022/01/31 07:09:00;;;;;;;2.12;1.75;;;6.70;84.50;;;;;;1855718;77;21471;-46
2022/01/31 07:11:34;;;;;;;1.55;1.07;;;6.50;83.60;;;;;;1855662;77;21167;-44
2022/01/31 07:16:42;;;;;;;1.82;1.45;;;6.00;84.30;;;;;;1816069;77;21058;-45
2022/01/31 07:19:11;;;;;;;0.80;0.80;;;5.80;84.80;;;;;;1855707;77;21566;-44
2022/01/31 07:21:48;;;;;;;1.52;1.37;;;5.70;85.00;;;;;;1855614;77;21053;-45
2022/01/31 07:24:42;;;;;;;1.47;1.37;;;5.50;85.40;;;;;;1854205;76;21108;-44
2022/01/31 07:26:54;;;;;;;1.75;1.55;;;5.40;85.90;;;;;;1850982;77;21070;-44
2022/01/31 07:29:24;;;;;;;1.50;1.40;;;5.40;86.30;;;;;;1855564;77;21089;-44
2022/01/31 07:31:53;;;;;;;1.22;1.12;;;5.30;86.30;;;;;;1855414;77;21150;-46
2022/01/31 07:34:23;;;;;;;2.30;1.67;;;5.30;86.70;;;;;;1855592;75;21061;-47
2022/01/31 07:36:53;;;;;;;1.98;1.77;;;5.20;86.80;;;;;;1855592;77;21590;-46
2022/01/31 07:39:23;;;;;;;2.40;2.20;;;5.20;87.20;;;;;;1855539;77;21038;-47
2022/01/31 07:41:52;;;;;;;3.30;2.40;;;5.10;87.60;;;;;;1855602;76;21041;-46
2022/01/31 07:44:21;;;;;;;3.42;2.05;;;5.10;87.80;;;;;;1855560;77;21033;-47
2022/01/31 07:46:52;;;;;;;2.33;1.98;;;5.00;87.50;;;;;;1855496;77;21034;-47
2022/01/31 07:49:24;;;;;;;2.72;2.20;;;5.00;87.80;;;;;;1854998;77;21099;-46
2022/01/31 07:51:54;;;;;;;1.90;1.57;;;5.10;88.20;;;;;;1862795;76;21307;-46
2022/01/31 07:54:24;;;;;;;1.55;1.45;;;5.20;87.90;;;;;;1871157;76;21190;-45
2022/01/31 07:56:56;;;;;;;1.75;1.65;;;5.20;87.80;;;;;;1890161;74;21113;-45
2022/01/31 07:59:25;;;;;;;2.05;1.85;;;5.10;87.40;;;;;;1878995;74;21033;-45
2022/01/31 08:01:54;;;;;;;3.72;2.40;;;5.00;87.60;;;;;;1881136;74;21147;-45
2022/01/31 08:04:24;;;;;;;2.77;1.55;;;5.00;87.90;;;;;;1870467;76;21077;-50
2022/01/31 08:06:53;;;;;;;2.33;1.90;;;4.90;87.90;;;;;;1876659;74;21081;-47
2022/01/31 08:09:23;;;;;;;1.87;1.72;;;4.90;88.30;;;;;;1860531;76;21002;-46
2022/01/31 08:11:52;;;;;;;5.03;1.92;;;4.90;88.70;;;;;;1867877;74;21109;-45
2022/01/31 08:14:22;;;;;;;3.80;2.20;;;5.00;88.30;;;;;;1886245;76;21134;-50
2022/01/31 08:16:51;;;;;;;3.15;1.72;;;5.00;88.70;;;;;;1886770;76;21034;-47
2022/01/31 08:19:21;;;;;;;3.15;1.65;;;5.00;88.20;;;;;;1885266;76;21030;-47
2022/01/31 08:21:50;;;;;;;2.40;1.70;;;5.10;88.00;;;;;;1863813;76;21041;-46
2022/01/31 08:24:20;;;;;;;4.20;2.00;;;5.10;88.10;;;;;;1865037;76;21103;-47
2022/01/31 08:26:50;;;;;;;2.87;1.52;;;5.20;88.40;;;;;;1823776;76;21038;-47
2022/01/31 08:29:24;;;;;;;2.55;2.30;;;5.20;88.80;;;;;;1819515;76;21011;-47
2022/01/31 08:31:57;;;;;;;4.90;2.20;;;5.30;88.80;;;;;;1933266;74;21472;-50
2022/01/31 08:37:14;;;;;;;3.52;2.10;;;5.40;88.30;;;;;;1821988;78;21070;-50
2022/01/31 08:39:44;;;;;;;2.90;2.30;;;5.60;88.50;;;;;;1865495;77;21035;-46
2022/01/31 08:42:14;;;;;;;4.03;2.50;;;5.60;88.30;;;;;;1837325;77;21453;-46
2022/01/31 08:44:43;;;;;;;4.60;1.95;;;5.70;88.60;;;;;;1843586;77;21078;-46
2022/01/31 08:47:13;;;;;;;1.55;1.30;;;5.70;88.00;;;;;;1917130;75;21014;-49
2022/01/31 08:49:42;;;;;;;2.52;1.07;;;5.80;88.10;;;;;;1916779;74;20994;-47
2022/01/31 08:52:12;;;;;;;1.00;0.95;;;5.70;87.30;;;;;;1884232;76;21067;-47
2022/01/31 08:54:42;;;;;;;2.87;1.15;;;5.70;87.20;;;;;;1836504;78;21042;-48
2022/01/31 08:57:11;;;;;;;1.47;1.20;;;5.70;87.30;;;;;;1892207;75;21001;-47
2022/01/31 08:59:44;;;;;;;4.67;3.20;;;5.60;87.30;;;;;;1884252;76;20997;-46
2022/01/31 09:02:18;;;;;;;2.72;1.80;;;5.50;87.20;;;;;;1883885;76;21090;-48
2022/01/31 09:04:51;;;;;;;3.02;1.30;;;5.40;87.00;;;;;;1894137;74;21083;-46
2022/01/31 09:07:22;;;;;;;1.50;1.30;;;5.40;87.10;;;;;;1909664;75;21089;-44
2022/01/31 09:09:53;;;;;;;1.87;1.67;;;5.30;87.20;;;;;;1909713;75;21030;-46
2022/01/31 09:12:26;;;;;;;1.60;1.50;;;5.40;87.60;;;;;;1908958;75;21027;-49
2022/01/31 09:14:55;;;;;;;2.17;1.75;;;5.40;87.60;;;;;;1909559;75;21109;-50
2022/01/31 09:17:24;;;;;;;3.67;1.80;;;5.50;87.90;;;;;;1909586;75;21407;-47
2022/01/31 09:19:54;;;;;;;3.95;2.62;;;5.50;87.60;;;;;;1909673;75;21031;-46
2022/01/31 09:22:23;;;;;;;2.72;1.98;;;5.60;87.40;;;;;;1908544;75;21094;-47
2022/01/31 09:24:53;;;;;;;2.92;1.62;;;5.60;87.70;;;;;;1908292;75;21090;-45
2022/01/31 09:27:23;;;;;;;5.30;1.90;;;5.50;87.20;;;;;;1907486;75;21144;-49
2022/01/31 09:29:52;;;;;;;2.00;1.72;;;5.50;87.30;;;;;;1907123;75;21171;-50
2022/01/31 09:32:24;;;;;;;3.37;2.10;;;5.40;87.60;;;;;;1907649;74;21152;-46
2022/01/31 09:34:53;;;;;;;8.75;5.00;;;5.40;87.70;;;;;;1905832;75;21067;-48
2022/01/31 09:37:24;;;;;;;5.28;2.55;;;5.40;87.90;;;;;;1905561;75;21023;-49
2022/01/31 09:40:01;;;;;;;4.97;2.37;;;5.50;87.90;;;;;;1905653;75;21076;-50
2022/01/31 09:42:36;;;;;;;3.87;2.52;;;5.50;88.00;;;;;;1907242;74;21103;-48
2022/01/31 09:50:17;;;;;;;4.37;3.25;;;5.70;87.70;;;;;;1911742;75;21047;-49
2022/01/31 09:52:47;;;;;;;2.20;1.90;;;5.80;87.70;;;;;;1911579;75;21143;-46
2022/01/31 09:55:17;;;;;;;2.55;1.87;;;5.80;87.60;;;;;;1911658;75;21102;-46
2022/01/31 09:57:48;;;;;;;4.62;2.17;;;5.90;87.40;;;;;;1911850;75;21132;-49
2022/01/31 10:00:18;;;;;;;2.30;2.00;;;6.00;87.60;;;;;;1911482;75;21054;-47
2022/01/31 10:03:13;;;;;;;3.02;2.35;;;6.10;87.60;;;;;;1905500;74;21034;-46
2022/01/31 10:05:43;;;;;;;2.43;2.23;;;6.30;88.00;;;;;;1890471;75;21557;-47
2022/01/31 10:08:17;;;;;;;2.37;1.80;;;6.40;87.90;;;;;;1907324;75;21200;-46
2022/01/31 10:10:48;;;;;;;4.97;2.60;;;6.50;87.60;;;;;;1907465;75;21023;-45
2022/01/31 10:16:30;;;;;;;3.02;2.72;;;6.70;86.90;;;;;;1907419;75;21101;-45
2022/01/31 10:19:05;;;;;;;8.28;3.47;;;6.70;86.60;;;;;;1907372;75;21042;-44
2022/01/31 10:21:35;;;;;;;3.85;2.80;;;6.60;86.40;;;;;;1906382;75;21446;-43
2022/01/31 10:24:07;;;;;;;3.00;2.50;;;6.50;86.50;;;;;;1903134;75;21935;-45
2022/01/31 10:26:37;;;;;;;7.00;3.12;;;6.50;87.00;;;;;;1904526;75;21164;-45
2022/01/31 10:29:14;;;;;;;4.33;3.12;;;6.40;86.50;;;;;;1907147;75;21066;-46
2022/01/31 10:32:04;;;;;;;2.92;2.60;;;6.40;86.30;;;;;;1907515;75;21191;-49
2022/01/31 10:34:35;;;;;;;8.35;3.12;;;6.40;86.10;;;;;;1907229;75;21075;-45
2022/01/31 10:37:10;;;;;;;3.00;2.70;;;6.40;86.50;;;;;;1911481;75;21117;-46
2022/01/31 10:45:39;;;;;;;4.33;3.20;;;6.50;86.70;;;;;;1913188;75;21178;-46
2022/01/31 10:53:54;;;;;;;24.85;14.13;;;6.70;86.30;;;;;;1865427;76;21095;-48
2022/01/31 10:56:19;;;;;;;3.80;3.20;;;6.90;86.40;;;;;;1903974;75;21082;-47
2022/01/31 10:59:03;;;;;;;5.37;3.15;;;6.90;86.20;;;;;;1904472;75;21098;-47
2022/01/31 11:01:32;;;;;;;6.35;4.30;;;7.00;85.70;;;;;;1904596;75;21523;-47
2022/01/31 11:04:07;;;;;;;3.47;2.70;;;7.00;85.70;;;;;;1904658;75;21062;-46
2022/01/31 11:06:37;;;;;;;3.52;2.58;;;7.10;85.70;;;;;;1904072;75;21015;-46
2022/01/31 11:09:09;;;;;;;7.83;3.20;;;7.10;85.00;;;;;;1904113;75;21082;-46
2022/01/31 11:11:44;;;;;;;6.83;2.98;;;7.10;85.30;;;;;;1903454;75;21122;-47
2022/01/31 11:14:14;;;;;;;3.30;2.15;;;7.10;85.30;;;;;;1904736;75;21524;-47
2022/01/31 11:16:46;;;;;;;2.20;1.98;;;7.10;84.90;;;;;;1904433;75;21078;-49
2022/01/31 11:19:23;;;;;;;3.22;2.47;;;7.10;84.60;;;;;;1904020;75;21171;-48
2022/01/31 11:21:49;;;;;;;3.95;2.55;;;7.10;84.10;;;;;;1902327;75;22288;-49
2022/01/31 11:24:30;;;;;;;2.40;2.20;;;7.10;83.30;;;;;;1903573;75;21074;-48
2022/01/31 11:26:59;;;;;;;3.50;2.47;;;7.10;82.80;;;;;;1903579;75;21458;-51
2022/01/31 11:29:28;;;;;;;4.72;2.50;;;7.10;84.00;;;;;;1897096;75;21054;-51
2022/01/31 11:31:59;;;;;;;3.80;1.47;;;7.10;83.20;;;;;;1904331;75;21031;-47
2022/01/31 11:34:28;;;;;;;2.00;1.80;;;7.00;82.40;;;;;;1904143;75;21039;-50
2022/01/31 11:36:58;;;;;;;4.15;2.72;;;7.00;82.60;;;;;;1898986;75;21114;-49
2022/01/31 11:39:29;;;;;;;2.83;1.55;;;7.00;83.70;;;;;;1894932;76;21024;-48
2022/01/31 11:42:03;;;;;;;7.15;5.30;;;7.00;82.90;;;;;;1895438;75;21035;-49
2022/01/31 11:44:53;;;;;;;3.58;2.47;;;7.00;82.50;;;;;;1895669;76;21103;-47
2022/01/31 11:47:24;;;;;;;6.42;2.65;;;7.00;83.30;;;;;;1895090;75;21615;-48
2022/01/31 11:49:56;;;;;;;3.08;2.20;;;7.00;83.30;;;;;;1895594;76;21023;-46
2022/01/31 11:52:27;;;;;;;4.20;2.33;;;7.00;82.40;;;;;;1895575;76;21561;-50
2022/01/31 11:55:02;;;;;;;4.65;2.60;;;7.00;83.10;;;;;;1895483;75;21489;-46
2022/01/31 11:57:34;;;;;;;2.60;2.15;;;7.00;82.20;;;;;;1895726;76;21184;-46
2022/01/31 12:00:06;;;;;;;5.65;1.90;;;7.00;82.70;;;;;;1895247;76;21097;-45
2022/01/31 12:02:45;;;;;;;3.72;3.17;;;7.00;82.70;;;;;;1893868;75;21090;-47
2022/01/31 12:05:18;;;;;;;4.78;3.25;;;6.90;82.50;;;;;;1895588;75;21020;-46
2022/01/31 12:07:49;;;;;;;7.05;4.85;;;6.90;82.80;;;;;;1895047;75;21078;-47
2022/01/31 12:10:26;;;;;;;5.00;4.00;;;6.90;83.40;;;;;;1895394;76;21063;-50
2022/01/31 12:13:00;;;;;;;35.00;17.57;;;6.90;83.30;;;;;;1895481;75;21063;-46
2022/01/31 12:24:01;;;;;;;9.48;6.95;;;6.90;81.90;;;;;;1895524;76;21075;-46
2022/01/31 12:26:42;;;;;;;4.72;2.33;;;6.90;82.30;;;;;;1895184;75;21097;-51
2022/01/31 12:29:13;;;;;;;2.50;2.30;;;6.80;82.40;;;;;;1895466;76;21603;-46
2022/01/31 12:31:46;;;;;;;2.67;2.33;;;6.80;82.90;;;;;;1895391;76;21156;-51
2022/01/31 12:34:21;;;;;;;4.83;2.45;;;6.80;82.50;;;;;;1895396;76;21598;-48
2022/01/31 12:36:54;;;;;;;;;;;6.80;83.20;;;;;;1901202;75;21066;-51
2022/01/31 12:39:40;;;;;;;5.67;2.15;;;6.80;82.50;;;;;;1904801;75;20115;-50
2022/01/31 12:42:45;;;;;;;5.62;2.65;;;6.70;82.90;;;;;;1905017;75;21035;-49
2022/01/31 12:45:02;;;;;;;6.00;2.75;;;6.70;83.30;;;;;;1901729;75;21082;-48
2022/01/31 12:47:32;;;;;;;4.00;2.85;;;6.70;83.00;;;;;;1904750;75;21141;-48
2022/01/31 12:50:20;;;;;;;2.60;1.75;;;6.70;83.30;;;;;;1904744;75;21023;-51
2022/01/31 12:52:50;;;;;;;5.42;3.50;;;6.70;82.70;;;;;;1904789;75;21544;-49
2022/01/31 12:55:22;;;;;;;4.67;3.12;;;6.70;82.80;;;;;;1904786;75;20999;-49
2022/01/31 12:57:52;;;;;;;2.22;1.30;;;6.70;82.90;;;;;;1904949;75;21023;-47
2022/01/31 13:00:41;;;;;;;1.47;1.35;;;6.70;83.30;;;;;;1904086;75;21096;-47
2022/01/31 13:03:11;;;;;;;3.65;2.70;;;6.70;83.30;;;;;;1904921;75;21034;-49
2022/01/31 13:05:41;;;;;;;6.12;2.45;;;6.80;83.30;;;;;;1904925;75;21023;-47
2022/01/31 13:08:26;;;;;;;2.90;1.90;;;6.70;82.70;;;;;;1904557;75;21140;-47
2022/01/31 13:10:56;;;;;;;2.27;1.87;;;6.70;82.60;;;;;;1904920;75;21086;-49
2022/01/31 13:13:34;;;;;;;3.67;1.95;;;6.70;81.80;;;;;;1904807;75;21039;-50
2022/01/31 13:16:08;;;;;;;4.83;1.80;;;6.80;82.10;;;;;;1904720;75;21031;-47
2022/01/31 13:18:39;;;;;;;2.87;1.82;;;6.80;81.80;;;;;;1904029;75;21102;-51
2022/01/31 13:21:12;;;;;;;3.02;2.52;;;6.80;81.60;;;;;;1904854;75;21071;-51
2022/01/31 13:23:43;;;;;;;3.83;2.25;;;6.80;81.70;;;;;;1904801;75;21427;-48
2022/01/31 13:26:12;;;;;;;2.80;1.87;;;6.80;82.40;;;;;;1905036;75;21555;-47
2022/01/31 13:28:44;;;;;;;1.82;1.70;;;6.80;81.50;;;;;;1904844;75;21027;-48
2022/01/31 13:31:13;;;;;;;4.97;2.22;;;6.80;81.50;;;;;;1902630;75;21039;-47
2022/01/31 13:33:47;;;;;;;3.25;2.35;;;6.80;82.40;;;;;;1903153;75;21097;-48
2022/01/31 13:36:16;;;;;;;5.12;2.62;;;6.80;82.30;;;;;;1903222;75;21082;-47
2022/01/31 13:38:47;;;;;;;4.12;2.55;;;6.80;82.60;;;;;;1902890;75;21098;-47
2022/01/31 13:41:19;;;;;;;3.08;2.40;;;6.80;83.10;;;;;;1903356;75;21144;-46
2022/01/31 13:43:47;;;;;;;2.75;2.55;;;6.80;83.10;;;;;;1903247;75;21434;-48
2022/01/31 13:48:56;;;;;;;2.75;2.27;;;6.70;82.50;;;;;;1903416;75;21043;-47
2022/01/31 13:51:43;;;;;;;4.45;2.27;;;6.60;82.80;;;;;;1902422;75;21133;-47
2022/01/31 13:54:08;;;;;;;3.30;2.52;;;6.50;83.20;;;;;;1901744;75;21063;-49